Time;durP1;ratioP1;P1;durP2;ratioP2;P2;SDS_P1;SDS_P2;PMS_P1;PMS_P2;Temp;Humidity;BMP_temperature;BMP_pressure;BME280_temperature;BME280_humidity;BME280_pressure;Samples;Min_cycle;Max_cycle;Signal;HPM_P1;HPM_P2
2024/01/19 00:01:20;;;;;;;5.40;2.95;;;15.00;50.50;;;;;;5032588;28;20646;-67
2024/01/19 00:03:46;;;;;;;6.35;2.92;;;15.00;50.50;;;;;;5033426;28;20255;-67
2024/01/19 00:06:11;;;;;;;3.25;2.95;;;15.00;50.40;;;;;;5033695;28;20187;-67
2024/01/19 00:08:37;;;;;;;2.88;2.67;;;15.00;50.40;;;;;;5032568;28;20172;-68
2024/01/19 00:11:14;;;;;;;3.75;3.20;;;15.00;50.40;;;;;;5033440;28;20218;-67
2024/01/19 00:13:41;;;;;;;3.00;2.70;;;15.00;50.40;;;;;;5033167;28;20172;-67
2024/01/19 00:16:07;;;;;;;3.33;3.00;;;15.00;50.40;;;;;;5032478;28;20208;-67
2024/01/19 00:18:32;;;;;;;2.75;2.53;;;14.90;50.30;;;;;;5032974;28;20182;-66
2024/01/19 00:20:58;;;;;;;4.18;3.40;;;14.90;50.50;;;;;;5033302;28;20555;-67
2024/01/19 00:23:23;;;;;;;4.20;2.60;;;14.90;50.40;;;;;;5032147;28;20172;-66
2024/01/19 00:25:49;;;;;;;4.15;2.72;;;14.90;50.40;;;;;;5033148;28;20518;-66
2024/01/19 00:28:15;;;;;;;3.85;3.00;;;14.90;50.40;;;;;;5032796;28;20217;-67
2024/01/19 00:30:43;;;;;;;2.88;2.58;;;14.90;50.60;;;;;;5032004;28;20588;-66
2024/01/19 00:33:10;;;;;;;3.33;2.72;;;14.90;50.70;;;;;;5032981;28;20179;-67
2024/01/19 00:35:35;;;;;;;4.20;3.03;;;14.80;50.60;;;;;;5032056;28;20761;-67
2024/01/19 00:38:01;;;;;;;4.43;2.80;;;14.80;50.60;;;;;;5032819;28;20271;-67
2024/01/19 00:40:27;;;;;;;4.18;2.85;;;14.80;50.50;;;;;;5032552;28;20268;-67
2024/01/19 00:42:52;;;;;;;2.90;2.70;;;14.80;50.50;;;;;;5032044;28;20541;-67
2024/01/19 00:45:18;;;;;;;3.53;2.85;;;14.80;50.50;;;;;;5032535;28;20267;-67
2024/01/19 00:47:43;;;;;;;4.40;2.97;;;14.80;50.60;;;;;;5032676;28;20251;-67
2024/01/19 00:50:09;;;;;;;3.90;2.55;;;14.80;50.50;;;;;;5032124;28;20259;-67
2024/01/19 00:52:34;;;;;;;2.95;2.70;;;14.80;50.60;;;;;;5032007;28;20234;-67
2024/01/19 00:55:00;;;;;;;3.70;2.53;;;14.80;50.70;;;;;;5032619;28;20567;-67
2024/01/19 00:57:26;;;;;;;2.70;2.38;;;14.70;50.60;;;;;;5031318;28;20182;-67
2024/01/19 00:59:51;;;;;;;2.90;2.70;;;14.70;50.60;;;;;;5032346;28;20172;-67
2024/01/19 01:02:17;;;;;;;3.10;2.55;;;14.70;50.60;;;;;;5032198;28;20168;-66
2024/01/19 01:04:42;;;;;;;3.35;2.80;;;14.70;50.70;;;;;;5031723;28;20229;-67
2024/01/19 01:07:08;;;;;;;5.95;3.17;;;14.70;50.70;;;;;;5032152;28;20223;-67
2024/01/19 01:09:34;;;;;;;3.38;2.58;;;14.70;50.60;;;;;;5031987;28;20175;-67
2024/01/19 01:12:01;;;;;;;5.32;2.60;;;14.70;50.60;;;;;;5031435;28;20215;-66
2024/01/19 01:14:26;;;;;;;3.25;2.55;;;14.70;50.60;;;;;;5031764;28;20552;-66
2024/01/19 01:16:51;;;;;;;3.33;2.63;;;14.70;50.60;;;;;;5032116;28;20617;-66
2024/01/19 01:19:17;;;;;;;2.63;2.35;;;14.60;50.60;;;;;;5031079;28;20178;-67
2024/01/19 01:21:42;;;;;;;2.53;2.30;;;14.60;50.70;;;;;;5032127;28;20172;-67
2024/01/19 01:24:08;;;;;;;3.08;2.67;;;14.60;50.60;;;;;;5032246;28;20176;-66
2024/01/19 01:26:34;;;;;;;2.67;2.28;;;14.60;50.70;;;;;;5031044;28;20497;-65
2024/01/19 01:28:59;;;;;;;3.97;2.70;;;14.60;50.70;;;;;;5031936;28;20218;-66
2024/01/19 01:31:25;;;;;;;3.13;2.30;;;14.60;50.80;;;;;;5031940;28;20172;-66
2024/01/19 01:33:50;;;;;;;2.83;2.33;;;14.50;50.70;;;;;;5031430;28;20179;-67
2024/01/19 01:36:16;;;;;;;2.47;2.20;;;14.60;50.80;;;;;;5031787;28;20211;-66
2024/01/19 01:38:41;;;;;;;3.10;2.60;;;14.60;50.70;;;;;;5031605;28;20600;-67
2024/01/19 01:41:07;;;;;;;2.75;2.55;;;14.60;50.70;;;;;;5031618;28;20205;-67
2024/01/19 01:43:33;;;;;;;2.35;2.15;;;14.60;50.80;;;;;;5031432;28;20176;-67
2024/01/19 01:45:58;;;;;;;2.75;2.35;;;14.60;50.80;;;;;;5031103;28;20283;-67
2024/01/19 01:48:24;;;;;;;3.72;2.58;;;14.60;50.80;;;;;;5031702;28;20183;-67
2024/01/19 01:50:49;;;;;;;3.25;2.78;;;14.60;50.80;;;;;;5032069;28;20221;-67
2024/01/19 01:53:15;;;;;;;2.70;2.30;;;14.50;50.80;;;;;;5030715;28;20224;-67
2024/01/19 01:55:42;;;;;;;2.72;2.50;;;14.50;50.80;;;;;;5031773;28;20215;-67
2024/01/19 01:58:08;;;;;;;3.40;2.75;;;14.50;50.80;;;;;;5030434;28;20178;-67
2024/01/19 02:00:34;;;;;;;2.70;2.33;;;14.50;50.80;;;;;;5030687;28;20184;-67
2024/01/19 02:03:02;;;;;;;2.80;2.20;;;14.50;50.80;;;;;;5030747;28;20176;-67
2024/01/19 02:05:27;;;;;;;2.67;2.15;;;14.50;50.80;;;;;;5030404;28;20176;-67
2024/01/19 02:07:53;;;;;;;2.78;2.25;;;14.50;50.90;;;;;;5031035;28;20192;-67
2024/01/19 02:10:18;;;;;;;4.05;2.30;;;14.50;50.80;;;;;;5031504;28;20600;-68
2024/01/19 02:12:44;;;;;;;3.22;2.25;;;14.50;50.80;;;;;;5030258;28;20730;-67
2024/01/19 02:15:23;;;;;;;2.63;2.42;;;14.50;50.80;;;;;;5031174;28;20214;-67
2024/01/19 02:17:49;;;;;;;3.78;2.05;;;14.40;50.90;;;;;;5035296;28;20730;-67
2024/01/19 02:20:15;;;;;;;2.95;2.67;;;14.40;50.80;;;;;;5035182;28;20184;-67
2024/01/19 02:22:40;;;;;;;2.10;1.90;;;14.40;50.80;;;;;;5034573;28;20180;-67
2024/01/19 02:25:06;;;;;;;2.38;2.00;;;14.40;50.90;;;;;;5034134;28;20172;-66
2024/01/19 02:27:32;;;;;;;3.40;2.13;;;14.40;50.70;;;;;;5034824;28;20183;-67
2024/01/19 02:29:58;;;;;;;2.33;1.95;;;14.40;50.80;;;;;;5034793;28;20167;-67
2024/01/19 02:32:23;;;;;;;2.17;1.73;;;14.40;50.90;;;;;;5034932;28;20176;-67
2024/01/19 02:34:49;;;;;;;1.88;1.73;;;14.40;50.90;;;;;;5035043;28;20290;-68
2024/01/19 02:37:14;;;;;;;2.30;2.10;;;14.40;50.90;;;;;;5034169;28;20184;-67
2024/01/19 02:39:40;;;;;;;1.83;1.73;;;14.40;50.80;;;;;;5035058;28;20164;-67
2024/01/19 02:42:07;;;;;;;2.50;2.15;;;14.40;50.90;;;;;;5034286;28;20187;-67
2024/01/19 02:44:32;;;;;;;1.90;1.77;;;14.30;50.80;;;;;;5035019;28;20195;-69
2024/01/19 02:46:58;;;;;;;2.60;1.60;;;14.30;50.80;;;;;;5035100;28;20635;-67
2024/01/19 02:49:23;;;;;;;1.95;1.60;;;14.30;50.90;;;;;;5033827;28;20171;-67
2024/01/19 02:51:49;;;;;;;2.70;1.92;;;14.30;50.90;;;;;;5033422;28;20314;-67
2024/01/19 02:54:14;;;;;;;2.53;2.00;;;14.30;50.90;;;;;;5034558;28;20261;-67
2024/01/19 02:56:40;;;;;;;2.17;2.03;;;14.30;51.00;;;;;;5033458;28;20761;-67
2024/01/19 02:59:05;;;;;;;2.28;1.52;;;14.30;51.00;;;;;;5034671;28;20259;-68
2024/01/19 03:01:31;;;;;;;2.55;1.70;;;14.30;51.10;;;;;;5034200;28;20271;-67
2024/01/19 03:03:57;;;;;;;2.38;1.90;;;14.30;51.70;;;;;;5033761;28;20172;-67
2024/01/19 03:06:23;;;;;;;2.00;1.70;;;14.30;51.00;;;;;;5034206;28;20186;-67
2024/01/19 03:08:49;;;;;;;2.10;1.80;;;14.30;51.00;;;;;;5034414;28;20180;-68
2024/01/19 03:11:15;;;;;;;1.75;1.65;;;14.20;51.00;;;;;;5033501;28;20180;-68
2024/01/19 03:13:40;;;;;;;2.15;1.40;;;14.20;51.00;;;;;;5034378;28;20179;-67
2024/01/19 03:16:06;;;;;;;2.17;1.98;;;14.20;51.10;;;;;;5034432;28;20211;-67
2024/01/19 03:18:32;;;;;;;1.73;1.63;;;14.20;51.00;;;;;;5033385;28;20539;-67
2024/01/19 03:20:57;;;;;;;1.63;1.45;;;14.20;51.00;;;;;;5034351;28;20643;-67
2024/01/19 03:23:26;;;;;;;1.73;1.63;;;14.20;51.00;;;;;;5033821;28;20191;-67
2024/01/19 03:25:51;;;;;;;1.50;1.40;;;14.20;51.00;;;;;;5033400;28;20230;-66
2024/01/19 03:28:17;;;;;;;1.67;1.40;;;14.20;51.00;;;;;;5032814;28;20167;-66
2024/01/19 03:30:42;;;;;;;1.65;1.40;;;14.20;51.10;;;;;;5034324;28;20662;-67
2024/01/19 03:33:08;;;;;;;2.53;1.60;;;14.20;51.10;;;;;;5033257;28;20222;-67
2024/01/19 03:35:34;;;;;;;2.00;1.60;;;14.20;51.10;;;;;;5033657;28;20239;-67
2024/01/19 03:37:59;;;;;;;1.60;1.38;;;14.20;51.00;;;;;;5033942;28;20199;-68
2024/01/19 03:40:25;;;;;;;1.60;1.50;;;14.10;51.10;;;;;;5032899;28;20638;-67
2024/01/19 03:42:50;;;;;;;1.70;1.60;;;14.10;51.70;;;;;;5033971;28;20287;-68
2024/01/19 03:45:16;;;;;;;1.63;1.38;;;14.10;51.10;;;;;;5033802;28;20218;-68
2024/01/19 03:47:43;;;;;;;2.05;1.50;;;14.10;51.20;;;;;;5033240;28;20614;-67
2024/01/19 03:50:09;;;;;;;3.28;2.17;;;14.10;51.20;;;;;;5033876;28;20291;-67
2024/01/19 03:52:34;;;;;;;1.63;1.52;;;14.10;51.20;;;;;;5032613;28;20693;-67
2024/01/19 03:55:00;;;;;;;2.00;1.60;;;14.10;51.20;;;;;;5032208;28;20294;-68
2024/01/19 03:57:26;;;;;;;3.00;1.60;;;14.10;51.20;;;;;;5033433;28;20252;-68
2024/01/19 03:59:51;;;;;;;1.60;1.50;;;14.10;51.20;;;;;;5033042;28;20694;-67
2024/01/19 04:02:17;;;;;;;1.88;1.33;;;14.10;51.30;;;;;;5032978;28;20171;-67
2024/01/19 04:04:43;;;;;;;1.50;1.40;;;14.10;51.30;;;;;;5033400;28;20267;-67
2024/01/19 04:07:09;;;;;;;1.40;1.30;;;14.00;51.20;;;;;;5032595;28;20211;-67
2024/01/19 04:09:34;;;;;;;2.72;1.65;;;14.00;51.20;;;;;;5032965;28;20222;-68
2024/01/19 04:12:08;;;;;;;1.42;1.33;;;14.00;51.20;;;;;;5033429;28;20172;-67
2024/01/19 04:14:34;;;;;;;1.42;1.33;;;14.00;51.20;;;;;;5032350;28;20180;-67
2024/01/19 04:16:59;;;;;;;1.65;1.55;;;14.00;51.30;;;;;;5033069;28;20199;-67
2024/01/19 04:19:25;;;;;;;2.47;1.42;;;14.00;51.20;;;;;;5032873;28;20175;-67
2024/01/19 04:21:50;;;;;;;1.98;1.40;;;14.00;51.30;;;;;;5032414;28;20179;-68
2024/01/19 04:24:16;;;;;;;2.00;1.38;;;14.00;51.20;;;;;;5033101;28;20180;-66
2024/01/19 04:26:41;;;;;;;1.75;1.40;;;14.00;51.30;;;;;;5033157;28;20180;-67
2024/01/19 04:29:07;;;;;;;1.63;1.52;;;14.00;51.40;;;;;;5032389;28;20539;-67
2024/01/19 04:31:32;;;;;;;2.25;1.50;;;14.00;51.40;;;;;;5032674;28;20171;-67
2024/01/19 04:33:58;;;;;;;2.58;1.70;;;14.00;51.40;;;;;;5032849;28;20190;-68
2024/01/19 04:36:23;;;;;;;2.97;1.85;;;14.00;51.40;;;;;;5031867;28;20218;-67
2024/01/19 04:38:52;;;;;;;2.58;1.58;;;13.90;51.30;;;;;;5032515;28;20183;-68
2024/01/19 04:41:18;;;;;;;2.38;1.73;;;13.90;51.40;;;;;;5032836;28;20184;-69
2024/01/19 04:43:46;;;;;;;2.38;1.88;;;13.90;51.40;;;;;;5032201;28;20209;-69
2024/01/19 04:46:12;;;;;;;2.30;1.63;;;13.90;51.40;;;;;;5033166;28;20253;-68
2024/01/19 04:48:37;;;;;;;2.13;1.52;;;13.90;51.40;;;;;;5031760;28;20210;-69
2024/01/19 04:51:04;;;;;;;1.95;1.60;;;13.90;51.40;;;;;;5032594;28;20526;-69
2024/01/19 04:53:33;;;;;;;2.55;1.65;;;13.90;51.50;;;;;;5030653;28;20238;-68
2024/01/19 04:55:58;;;;;;;1.95;1.75;;;13.90;51.50;;;;;;5031862;28;20218;-68
2024/01/19 04:58:24;;;;;;;1.50;1.40;;;13.90;51.50;;;;;;5032216;28;20183;-68
2024/01/19 05:00:49;;;;;;;1.88;1.30;;;14.00;51.40;;;;;;5032553;28;20183;-68
2024/01/19 05:03:15;;;;;;;1.30;1.20;;;14.00;51.30;;;;;;5031446;28;20176;-68
2024/01/19 05:05:41;;;;;;;2.33;1.70;;;14.00;51.20;;;;;;5032257;28;20569;-68
2024/01/19 05:08:06;;;;;;;1.48;1.38;;;14.00;51.20;;;;;;5032493;28;20168;-69
2024/01/19 05:10:32;;;;;;;2.30;1.40;;;14.00;51.30;;;;;;5031464;28;20222;-68
2024/01/19 05:12:57;;;;;;;1.73;1.58;;;14.00;51.30;;;;;;5032329;28;20203;-69
2024/01/19 05:15:23;;;;;;;1.98;1.73;;;14.00;51.30;;;;;;5031891;28;20214;-69
2024/01/19 05:17:48;;;;;;;2.15;1.30;;;14.00;51.40;;;;;;5031476;28;20171;-68
2024/01/19 05:20:14;;;;;;;1.92;1.65;;;13.90;51.40;;;;;;5032083;28;20184;-69
2024/01/19 05:22:40;;;;;;;2.03;1.77;;;13.90;51.40;;;;;;5032193;28;20172;-68
2024/01/19 05:25:06;;;;;;;1.60;1.30;;;13.90;51.40;;;;;;5031476;28;20168;-68
2024/01/19 05:27:32;;;;;;;2.00;1.50;;;13.90;51.50;;;;;;5030400;28;20188;-68
2024/01/19 05:29:57;;;;;;;2.22;1.15;;;13.90;51.50;;;;;;5032207;28;20229;-68
2024/01/19 05:32:23;;;;;;;1.40;1.10;;;13.90;51.50;;;;;;5030951;28;20262;-68
2024/01/19 05:34:49;;;;;;;1.95;1.30;;;14.00;51.50;;;;;;5031972;28;20286;-68
2024/01/19 05:37:14;;;;;;;1.40;1.30;;;14.00;51.40;;;;;;5032084;28;20187;-69
2024/01/19 05:39:40;;;;;;;2.22;1.50;;;13.90;51.30;;;;;;5031184;28;20723;-69
2024/01/19 05:42:06;;;;;;;1.50;1.40;;;13.90;51.30;;;;;;5032119;28;20221;-68
2024/01/19 05:44:31;;;;;;;1.48;1.38;;;14.00;51.40;;;;;;5031760;28;20634;-68
2024/01/19 05:46:57;;;;;;;2.38;1.67;;;13.90;51.30;;;;;;5031548;28;20175;-68
2024/01/19 05:49:22;;;;;;;1.40;1.30;;;13.90;51.40;;;;;;5031593;28;20163;-68
2024/01/19 05:51:48;;;;;;;2.38;1.75;;;14.00;51.40;;;;;;5035206;28;20227;-67
2024/01/19 05:54:13;;;;;;;1.42;1.30;;;14.00;51.30;;;;;;5035555;28;20581;-67
2024/01/19 05:56:39;;;;;;;2.28;1.20;;;14.10;51.30;;;;;;5035607;28;20273;-68
2024/01/19 05:59:04;;;;;;;1.45;1.35;;;14.20;51.40;;;;;;5035196;28;20168;-67
2024/01/19 06:01:30;;;;;;;1.60;1.50;;;14.30;51.40;;;;;;5035520;28;20187;-68
2024/01/19 06:03:58;;;;;;;1.42;1.15;;;14.40;51.20;;;;;;5035648;28;20180;-67
2024/01/19 06:06:23;;;;;;;2.67;1.48;;;14.60;51.00;;;;;;5034586;28;20171;-68
2024/01/19 06:08:49;;;;;;;2.78;1.40;;;14.70;50.80;;;;;;5035786;28;20702;-68
2024/01/19 06:11:14;;;;;;;1.30;1.20;;;14.80;50.60;;;;;;5035495;28;20646;-68
2024/01/19 06:13:40;;;;;;;1.42;1.33;;;15.00;50.40;;;;;;5034830;28;20541;-68
2024/01/19 06:16:06;;;;;;;1.85;1.27;;;15.20;50.10;;;;;;5035414;28;20744;-67
2024/01/19 06:18:33;;;;;;;2.08;1.67;;;15.40;50.00;;;;;;5034888;28;20267;-67
2024/01/19 06:21:00;;;;;;;1.42;1.33;;;15.60;49.70;;;;;;5034630;28;20187;-67
2024/01/19 06:23:26;;;;;;;0.90;0.90;;;15.60;49.40;;;;;;5035091;28;20176;-67
2024/01/19 06:25:52;;;;;;;1.90;1.38;;;15.80;49.30;;;;;;5035559;28;20544;-66
2024/01/19 06:28:18;;;;;;;2.08;1.38;;;15.70;49.20;;;;;;5034156;28;20180;-67
2024/01/19 06:30:44;;;;;;;2.50;1.23;;;15.70;49.30;;;;;;5035198;28;20609;-67
2024/01/19 06:33:10;;;;;;;1.35;1.25;;;15.80;49.20;;;;;;5035091;28;20167;-68
2024/01/19 06:35:36;;;;;;;1.60;1.40;;;15.80;49.20;;;;;;5034090;28;20227;-68
2024/01/19 06:38:03;;;;;;;0.98;0.93;;;15.80;49.90;;;;;;5035196;28;20176;-68
2024/01/19 06:40:28;;;;;;;1.10;1.10;;;15.70;49.20;;;;;;5034929;28;20187;-68
2024/01/19 06:42:54;;;;;;;1.58;1.20;;;15.70;49.30;;;;;;5034376;28;20302;-69
2024/01/19 06:45:19;;;;;;;3.25;1.23;;;15.70;49.40;;;;;;5034807;28;20282;-68
2024/01/19 06:47:45;;;;;;;1.83;1.58;;;15.70;49.30;;;;;;5034738;28;20250;-68
2024/01/19 06:50:11;;;;;;;1.65;1.55;;;15.80;49.40;;;;;;5034925;28;20179;-68
2024/01/19 06:52:37;;;;;;;1.25;1.10;;;15.90;49.40;;;;;;5034365;28;20257;-69
2024/01/19 06:55:03;;;;;;;1.70;1.60;;;15.90;49.40;;;;;;5034827;28;20208;-68
2024/01/19 06:57:31;;;;;;;2.03;1.48;;;16.00;49.30;;;;;;5033934;28;20229;-68
2024/01/19 06:59:57;;;;;;;1.17;1.13;;;16.10;49.10;;;;;;5034809;28;20179;-68
2024/01/19 07:02:23;;;;;;;1.48;1.30;;;16.20;48.90;;;;;;5033329;28;20168;-68
2024/01/19 07:04:49;;;;;;;1.52;1.10;;;16.30;48.80;;;;;;5034817;28;20549;-68
2024/01/19 07:07:15;;;;;;;1.63;1.23;;;16.30;48.80;;;;;;5034378;28;20242;-68
2024/01/19 07:09:40;;;;;;;2.53;1.40;;;16.30;48.80;;;;;;5033916;28;20647;-68
2024/01/19 07:12:06;;;;;;;2.00;1.40;;;16.40;48.70;;;;;;5034496;28;20164;-67
2024/01/19 07:14:31;;;;;;;1.30;1.10;;;16.30;48.50;;;;;;5033818;28;20180;-68
2024/01/19 07:16:57;;;;;;;1.65;1.55;;;16.30;48.70;;;;;;5033592;28;20199;-68
2024/01/19 07:19:23;;;;;;;2.20;1.10;;;16.20;48.80;;;;;;5033896;28;20184;-67
2024/01/19 07:21:48;;;;;;;1.67;1.27;;;16.20;48.90;;;;;;5034299;28;20290;-67
2024/01/19 07:24:14;;;;;;;1.15;1.10;;;16.20;48.90;;;;;;5033569;28;20259;-66
2024/01/19 07:26:39;;;;;;;1.23;1.05;;;16.20;49.00;;;;;;5034271;28;20179;-67
2024/01/19 07:29:06;;;;;;;1.05;0.95;;;16.30;48.90;;;;;;5034124;28;20266;-67
2024/01/19 07:31:32;;;;;;;1.10;1.00;;;16.40;48.80;;;;;;5032810;28;20270;-66
2024/01/19 07:33:57;;;;;;;1.20;1.10;;;16.50;48.50;;;;;;5034067;28;20755;-67
2024/01/19 07:36:23;;;;;;;1.48;1.27;;;16.50;49.10;;;;;;5033842;28;20212;-68
2024/01/19 07:38:48;;;;;;;1.25;1.15;;;16.60;48.60;;;;;;5033199;28;20171;-68
2024/01/19 07:41:14;;;;;;;2.35;1.23;;;16.50;48.80;;;;;;5033894;28;20262;-68
2024/01/19 07:43:39;;;;;;;2.03;1.42;;;16.50;48.90;;;;;;5033712;28;20259;-67
2024/01/19 07:46:05;;;;;;;2.88;1.63;;;16.50;48.90;;;;;;5032915;28;20176;-67
2024/01/19 07:48:31;;;;;;;2.15;1.23;;;16.60;48.90;;;;;;5033415;28;20176;-69
2024/01/19 07:50:57;;;;;;;2.78;1.33;;;16.70;48.80;;;;;;5033916;28;20195;-67
2024/01/19 07:53:22;;;;;;;2.65;1.40;;;16.60;48.90;;;;;;5032237;28;20318;-68
2024/01/19 07:55:48;;;;;;;3.60;1.75;;;16.70;49.10;;;;;;5033373;28;20306;-69
2024/01/19 07:58:13;;;;;;;2.35;1.25;;;16.70;49.10;;;;;;5033276;28;20208;-68
2024/01/19 08:00:39;;;;;;;4.75;1.58;;;16.70;49.20;;;;;;5032282;28;20210;-67
2024/01/19 08:03:05;;;;;;;5.22;1.50;;;16.70;49.60;;;;;;5033175;28;20202;-68
2024/01/19 08:05:30;;;;;;;1.42;1.20;;;16.70;49.20;;;;;;5032107;28;20202;-66
2024/01/19 08:07:56;;;;;;;3.28;1.52;;;16.80;49.30;;;;;;5032710;28;20198;-67
2024/01/19 08:10:21;;;;;;;3.13;1.38;;;16.80;49.20;;;;;;5033011;28;20271;-66
2024/01/19 08:12:47;;;;;;;1.50;1.40;;;16.80;49.10;;;;;;5032119;28;20171;-67
2024/01/19 08:15:13;;;;;;;2.53;1.50;;;16.90;48.90;;;;;;5032499;28;20211;-68
2024/01/19 08:17:38;;;;;;;4.32;1.35;;;17.00;48.80;;;;;;5033031;28;20176;-67
2024/01/19 08:20:04;;;;;;;2.55;1.02;;;17.00;48.90;;;;;;5032606;28;20282;-67
2024/01/19 08:22:30;;;;;;;3.15;1.60;;;17.00;48.90;;;;;;5032602;28;20180;-68
2024/01/19 08:24:55;;;;;;;1.95;1.25;;;17.10;48.90;;;;;;5033281;28;20182;-67
2024/01/19 08:27:21;;;;;;;1.95;1.70;;;17.20;48.80;;;;;;5031879;28;20188;-66
2024/01/19 08:29:47;;;;;;;4.20;1.40;;;17.30;48.70;;;;;;5032799;28;20531;-65
2024/01/19 08:32:13;;;;;;;2.00;1.50;;;17.20;48.90;;;;;;5032866;28;20584;-67
2024/01/19 08:34:38;;;;;;;2.75;1.10;;;17.30;48.80;;;;;;5031995;28;20179;-67
2024/01/19 08:37:06;;;;;;;2.15;1.30;;;17.40;48.60;;;;;;5033113;28;20188;-67
2024/01/19 08:39:32;;;;;;;1.75;1.10;;;17.40;48.60;;;;;;5032260;28;20557;-68
2024/01/19 08:41:58;;;;;;;2.67;1.38;;;17.50;48.70;;;;;;5032212;28;20651;-66
2024/01/19 08:44:23;;;;;;;1.17;1.17;;;17.40;48.70;;;;;;5032232;28;20249;-67
2024/01/19 08:46:49;;;;;;;1.85;1.23;;;17.40;48.80;;;;;;5032627;28;20175;-67
2024/01/19 08:49:15;;;;;;;1.35;1.20;;;17.40;48.80;;;;;;5031807;28;20180;-68
2024/01/19 08:51:40;;;;;;;1.77;0.88;;;17.50;48.80;;;;;;5032144;28;20298;-67
2024/01/19 08:54:06;;;;;;;1.45;1.08;;;17.60;48.70;;;;;;5032742;28;20200;-68
2024/01/19 08:56:32;;;;;;;1.65;1.20;;;17.60;48.60;;;;;;5031433;28;20211;-68
2024/01/19 08:58:57;;;;;;;1.25;1.10;;;17.50;48.70;;;;;;5032165;28;20168;-70
2024/01/19 09:01:23;;;;;;;1.20;0.95;;;17.60;48.80;;;;;;5032039;28;20186;-68
2024/01/19 09:03:48;;;;;;;1.30;1.20;;;17.60;48.70;;;;;;5031226;28;20175;-68
2024/01/19 09:06:14;;;;;;;0.95;0.90;;;17.60;48.80;;;;;;5032081;28;20175;-68
2024/01/19 09:08:41;;;;;;;1.13;1.10;;;17.60;49.00;;;;;;5048609;28;20171;-68
2024/01/19 09:11:10;;;;;;;2.05;1.20;;;17.60;48.90;;;;;;5065913;28;20174;-68
2024/01/19 09:13:37;;;;;;;1.67;1.00;;;17.70;48.80;;;;;;5053278;28;20171;-67
2024/01/19 09:16:09;;;;;;;2.53;1.00;;;17.70;48.60;;;;;;5053991;28;20214;-68
2024/01/19 09:18:37;;;;;;;2.78;1.70;;;17.70;48.70;;;;;;5070062;28;20179;-68
2024/01/19 09:21:03;;;;;;;2.03;1.40;;;17.80;48.60;;;;;;5071831;28;20181;-68
2024/01/19 09:23:28;;;;;;;2.45;1.10;;;17.80;48.50;;;;;;5070991;28;20180;-68
2024/01/19 09:25:54;;;;;;;1.42;1.30;;;17.70;48.60;;;;;;5056335;28;20182;-67
2024/01/19 09:28:20;;;;;;;1.80;1.20;;;17.80;48.60;;;;;;5051408;28;20614;-68
2024/01/19 09:30:48;;;;;;;1.00;0.90;;;17.70;48.60;;;;;;5051420;28;20270;-67
2024/01/19 09:33:17;;;;;;;1.63;1.13;;;17.70;48.60;;;;;;5051916;28;20241;-68
2024/01/19 09:35:42;;;;;;;1.27;1.13;;;17.70;48.60;;;;;;5051739;28;20232;-68
2024/01/19 09:38:08;;;;;;;2.85;1.23;;;17.80;48.50;;;;;;5051295;28;20167;-69
2024/01/19 09:40:39;;;;;;;2.05;1.48;;;17.80;48.30;;;;;;5051650;28;20328;-68
2024/01/19 09:43:04;;;;;;;2.33;1.35;;;17.80;48.40;;;;;;5065290;28;20182;-68
2024/01/19 09:45:41;;;;;;;1.83;1.27;;;17.80;48.40;;;;;;5052540;28;20649;-67
2024/01/19 09:48:17;;;;;;;4.97;1.65;;;17.80;48.40;;;;;;5071836;28;20193;-67
2024/01/19 09:50:43;;;;;;;1.25;1.05;;;17.90;48.40;;;;;;5070656;28;20213;-67
2024/01/19 09:53:16;;;;;;;2.97;1.30;;;17.90;48.40;;;;;;5052823;28;20225;-67
2024/01/19 09:55:41;;;;;;;1.30;1.20;;;17.90;48.30;;;;;;5070693;28;20398;-68
2024/01/19 09:58:07;;;;;;;1.40;1.30;;;18.00;48.20;;;;;;5069868;28;20174;-68
2024/01/19 10:00:32;;;;;;;1.63;1.23;;;18.00;48.80;;;;;;5053492;28;20174;-67
2024/01/19 10:02:58;;;;;;;1.30;1.17;;;18.00;48.20;;;;;;5071339;28;20617;-67
2024/01/19 10:05:23;;;;;;;1.33;1.20;;;17.90;48.20;;;;;;5069063;28;20182;-68
2024/01/19 10:07:53;;;;;;;1.60;1.20;;;18.00;48.20;;;;;;5071386;28;20290;-68
2024/01/19 10:10:19;;;;;;;2.38;1.30;;;18.00;48.30;;;;;;5071359;28;20227;-68
2024/01/19 10:12:45;;;;;;;1.20;1.10;;;18.00;48.20;;;;;;5069928;28;20245;-68
2024/01/19 10:15:17;;;;;;;1.27;1.17;;;18.10;48.10;;;;;;5071573;28;20289;-68
2024/01/19 10:17:44;;;;;;;1.58;1.48;;;18.10;48.00;;;;;;5052379;28;20183;-67
2024/01/19 10:20:11;;;;;;;1.40;1.30;;;18.10;48.00;;;;;;5050757;28;20232;-68
2024/01/19 10:22:37;;;;;;;2.35;1.33;;;18.10;48.00;;;;;;5051050;28;20211;-67
2024/01/19 10:25:04;;;;;;;1.60;1.50;;;18.10;48.00;;;;;;5051290;28;20221;-68
2024/01/19 10:27:51;;;;;;;2.42;1.77;;;18.10;48.00;;;;;;5050510;28;20207;-67
2024/01/19 10:30:23;;;;;;;1.40;1.30;;;18.10;48.00;;;;;;5051161;28;20277;-68
2024/01/19 10:32:50;;;;;;;1.67;1.58;;;18.20;48.10;;;;;;5051286;28;20536;-67
2024/01/19 10:35:18;;;;;;;1.30;1.20;;;18.20;48.00;;;;;;5050103;28;20199;-68
2024/01/19 10:37:44;;;;;;;3.33;1.75;;;18.30;48.00;;;;;;5033932;28;20179;-68
2024/01/19 10:40:17;;;;;;;2.22;1.40;;;18.30;48.00;;;;;;5035752;28;20208;-68
2024/01/19 10:42:43;;;;;;;1.30;1.20;;;18.30;48.00;;;;;;5035087;28;20176;-66
2024/01/19 10:45:16;;;;;;;2.05;1.50;;;18.30;48.00;;;;;;5034803;28;20183;-67
2024/01/19 10:47:45;;;;;;;1.60;1.50;;;18.40;48.10;;;;;;5034003;28;20459;-67
2024/01/19 10:50:13;;;;;;;2.60;1.48;;;18.40;48.20;;;;;;5034805;28;20184;-66
2024/01/19 10:52:40;;;;;;;5.68;1.55;;;18.40;48.10;;;;;;5034621;28;20311;-66
2024/01/19 10:55:06;;;;;;;1.33;1.10;;;18.50;48.20;;;;;;5034059;28;20624;-67
2024/01/19 10:57:31;;;;;;;2.85;1.50;;;18.50;48.20;;;;;;5034473;28;20710;-69
2024/01/19 10:59:57;;;;;;;1.83;1.30;;;18.60;48.30;;;;;;5034637;28;20171;-67
2024/01/19 11:02:22;;;;;;;1.30;1.20;;;18.60;48.30;;;;;;5033729;28;20206;-66
2024/01/19 11:04:48;;;;;;;1.90;1.30;;;18.50;48.40;;;;;;5033375;28;20168;-68
2024/01/19 11:07:13;;;;;;;3.10;1.33;;;18.60;48.30;;;;;;5033251;28;20175;-68
2024/01/19 11:09:40;;;;;;;4.20;1.60;;;18.60;48.30;;;;;;5047568;28;20176;-72
2024/01/19 11:12:06;;;;;;;1.50;1.40;;;18.60;48.50;;;;;;5053210;28;20652;-67
2024/01/19 11:14:34;;;;;;;4.35;1.95;;;18.60;48.40;;;;;;5053058;28;20650;-67
2024/01/19 11:17:00;;;;;;;1.90;1.33;;;18.60;48.50;;;;;;5053732;28;20244;-68
2024/01/19 11:19:25;;;;;;;2.03;1.33;;;18.60;48.50;;;;;;5053941;28;20593;-67
2024/01/19 11:21:54;;;;;;;1.38;1.27;;;18.60;48.50;;;;;;5053167;28;20704;-68
2024/01/19 11:24:20;;;;;;;3.58;1.17;;;18.60;48.60;;;;;;5053248;28;20197;-67
2024/01/19 11:26:54;;;;;;;2.35;1.48;;;18.70;48.50;;;;;;5052889;28;20175;-67
2024/01/19 11:29:30;;;;;;;2.03;1.50;;;18.70;48.50;;;;;;5052658;28;20200;-66
2024/01/19 11:31:56;;;;;;;2.08;1.20;;;18.70;48.40;;;;;;5052857;28;20270;-66
2024/01/19 11:34:50;;;;;;;2.58;1.45;;;18.70;48.50;;;;;;5052632;28;20259;-66
2024/01/19 11:37:41;;;;;;;1.83;1.33;;;18.70;48.30;;;;;;5052857;28;20669;-65
2024/01/19 11:40:07;;;;;;;2.00;1.50;;;18.80;48.30;;;;;;5053724;28;20741;-65
2024/01/19 11:42:51;;;;;;;1.55;1.10;;;18.80;48.40;;;;;;5053424;28;20191;-65
2024/01/19 11:45:42;;;;;;;2.17;1.40;;;18.80;48.30;;;;;;5052809;28;20261;-66
2024/01/19 11:48:09;;;;;;;2.15;1.40;;;18.80;48.20;;;;;;5052877;28;20657;-65
2024/01/19 11:50:45;;;;;;;4.30;1.88;;;18.80;48.10;;;;;;5053377;28;20266;-65
2024/01/19 11:53:11;;;;;;;2.15;1.42;;;18.80;48.10;;;;;;5053504;28;20233;-65
2024/01/19 11:55:38;;;;;;;2.53;1.55;;;18.90;48.00;;;;;;5053121;28;20202;-65
2024/01/19 11:58:26;;;;;;;1.85;1.10;;;18.90;48.00;;;;;;5052904;28;20179;-65
2024/01/19 12:00:56;;;;;;;2.08;1.17;;;18.90;48.00;;;;;;5053413;28;20183;-65
2024/01/19 12:03:22;;;;;;;1.77;1.67;;;18.90;47.80;;;;;;5053296;28;20270;-65
2024/01/19 12:05:49;;;;;;;1.73;1.15;;;19.00;47.80;;;;;;5052916;28;20171;-66
2024/01/19 12:08:14;;;;;;;1.65;1.45;;;18.90;47.80;;;;;;5053345;28;20245;-65
2024/01/19 12:10:42;;;;;;;3.03;1.40;;;18.90;47.80;;;;;;5054211;28;20634;-66
2024/01/19 12:13:08;;;;;;;1.60;1.30;;;18.90;47.80;;;;;;5052724;28;20634;-66
2024/01/19 12:15:33;;;;;;;2.47;1.73;;;18.90;47.80;;;;;;5053586;28;20250;-66
2024/01/19 12:17:59;;;;;;;4.60;1.83;;;18.90;48.10;;;;;;5052597;28;20203;-66
2024/01/19 12:20:25;;;;;;;3.90;1.38;;;18.90;48.00;;;;;;5051238;28;20183;-67
2024/01/19 12:22:52;;;;;;;2.75;1.42;;;18.90;48.00;;;;;;5053672;28;20232;-69
2024/01/19 12:25:19;;;;;;;2.50;1.35;;;18.90;48.00;;;;;;5051656;28;20175;-67
2024/01/19 12:27:45;;;;;;;1.13;1.02;;;18.90;48.10;;;;;;5052200;28;20571;-67
2024/01/19 12:30:12;;;;;;;4.03;1.52;;;19.00;48.20;;;;;;5052838;28;20179;-67
2024/01/19 12:32:37;;;;;;;1.35;1.00;;;19.00;48.30;;;;;;5052420;28;20187;-66
2024/01/19 12:35:03;;;;;;;4.28;1.42;;;19.00;48.30;;;;;;5052440;28;20171;-66
2024/01/19 12:37:29;;;;;;;2.45;1.10;;;19.10;48.20;;;;;;5052560;28;20266;-67
2024/01/19 12:40:06;;;;;;;3.70;1.33;;;19.10;48.20;;;;;;5050839;28;20262;-66
2024/01/19 12:42:35;;;;;;;1.38;1.13;;;19.10;48.20;;;;;;5051188;28;20174;-68
2024/01/19 12:45:04;;;;;;;1.30;1.15;;;19.20;48.20;;;;;;5052977;28;20175;-64